sensor_id;sensor_type;location;lat;lon;timestamp;P1;durP1;ratioP1;P2;durP2;ratioP2
10872;SDS011;34586;53.616;10.032;2022-07-29T00:02:12;3.77;;;1.30;;
10872;SDS011;34586;53.616;10.032;2022-07-29T00:04:37;1.80;;;1.03;;
10872;SDS011;34586;53.616;10.032;2022-07-29T00:07:03;4.17;;;1.00;;
10872;SDS011;34586;53.616;10.032;2022-07-29T00:09:29;4.13;;;1.00;;
10872;SDS011;34586;53.616;10.032;2022-07-29T00:11:56;2.10;;;0.80;;
10872;SDS011;34586;53.616;10.032;2022-07-29T00:14:25;2.47;;;0.90;;
10872;SDS011;34586;53.616;10.032;2022-07-29T00:16:52;2.07;;;1.00;;
10872;SDS011;34586;53.616;10.032;2022-07-29T00:19:17;1.80;;;0.83;;
10872;SDS011;34586;53.616;10.032;2022-07-29T00:21:43;1.57;;;1.17;;
10872;SDS011;34586;53.616;10.032;2022-07-29T00:24:08;2.30;;;1.10;;
10872;SDS011;34586;53.616;10.032;2022-07-29T00:26:34;3.97;;;1.23;;
10872;SDS011;34586;53.616;10.032;2022-07-29T00:29:00;3.73;;;1.30;;
10872;SDS011;34586;53.616;10.032;2022-07-29T00:31:28;2.43;;;0.90;;
10872;SDS011;34586;53.616;10.032;2022-07-29T00:33:54;3.80;;;1.13;;
10872;SDS011;34586;53.616;10.032;2022-07-29T00:36:21;2.67;;;1.20;;
10872;SDS011;34586;53.616;10.032;2022-07-29T00:38:47;1.93;;;1.17;;
10872;SDS011;34586;53.616;10.032;2022-07-29T00:41:14;2.20;;;1.27;;
10872;SDS011;34586;53.616;10.032;2022-07-29T00:43:40;1.87;;;1.23;;
10872;SDS011;34586;53.616;10.032;2022-07-29T00:46:06;1.33;;;1.00;;
10872;SDS011;34586;53.616;10.032;2022-07-29T00:48:32;2.00;;;1.17;;
10872;SDS011;34586;53.616;10.032;2022-07-29T00:50:58;1.90;;;1.30;;
10872;SDS011;34586;53.616;10.032;2022-07-29T00:53:26;0.93;;;0.80;;
10872;SDS011;34586;53.616;10.032;2022-07-29T00:55:55;2.30;;;1.40;;
10872;SDS011;34586;53.616;10.032;2022-07-29T00:58:22;1.90;;;1.20;;
10872;SDS011;34586;53.616;10.032;2022-07-29T01:00:48;2.53;;;1.10;;
10872;SDS011;34586;53.616;10.032;2022-07-29T01:03:14;3.70;;;1.40;;
10872;SDS011;34586;53.616;10.032;2022-07-29T01:05:41;3.13;;;1.37;;
10872;SDS011;34586;53.616;10.032;2022-07-29T01:08:08;1.87;;;1.10;;
10872;SDS011;34586;53.616;10.032;2022-07-29T01:10:36;4.60;;;1.10;;
10872;SDS011;34586;53.616;10.032;2022-07-29T01:13:04;2.73;;;1.43;;
10872;SDS011;34586;53.616;10.032;2022-07-29T01:15:30;2.93;;;1.23;;
10872;SDS011;34586;53.616;10.032;2022-07-29T01:18:11;2.77;;;1.47;;
10872;SDS011;34586;53.616;10.032;2022-07-29T01:26:25;1.83;;;1.30;;
10872;SDS011;34586;53.616;10.032;2022-07-29T01:31:51;2.43;;;1.30;;
10872;SDS011;34586;53.616;10.032;2022-07-29T01:34:50;1.83;;;1.20;;
10872;SDS011;34586;53.616;10.032;2022-07-29T01:37:39;1.87;;;1.20;;
10872;SDS011;34586;53.616;10.032;2022-07-29T01:40:22;1.53;;;1.10;;
10872;SDS011;34586;53.616;10.032;2022-07-29T01:43:03;2.60;;;1.57;;
10872;SDS011;34586;53.616;10.032;2022-07-29T01:45:41;2.40;;;1.30;;
10872;SDS011;34586;53.616;10.032;2022-07-29T01:50:58;1.40;;;1.03;;
10872;SDS011;34586;53.616;10.032;2022-07-29T01:53:31;5.53;;;1.50;;
10872;SDS011;34586;53.616;10.032;2022-07-29T01:56:18;4.10;;;1.40;;
10872;SDS011;34586;53.616;10.032;2022-07-29T01:58:44;4.13;;;1.30;;
10872;SDS011;34586;53.616;10.032;2022-07-29T02:01:13;3.47;;;1.53;;
10872;SDS011;34586;53.616;10.032;2022-07-29T02:03:41;2.53;;;1.63;;
10872;SDS011;34586;53.616;10.032;2022-07-29T02:06:09;3.33;;;1.40;;
10872;SDS011;34586;53.616;10.032;2022-07-29T02:08:37;2.83;;;1.53;;
10872;SDS011;34586;53.616;10.032;2022-07-29T02:11:04;2.20;;;1.13;;
10872;SDS011;34586;53.616;10.032;2022-07-29T02:13:31;2.23;;;1.33;;
10872;SDS011;34586;53.616;10.032;2022-07-29T02:15:59;4.40;;;1.60;;
10872;SDS011;34586;53.616;10.032;2022-07-29T02:18:27;6.20;;;1.77;;
10872;SDS011;34586;53.616;10.032;2022-07-29T02:20:55;2.77;;;1.50;;
10872;SDS011;34586;53.616;10.032;2022-07-29T02:23:24;2.97;;;1.40;;
10872;SDS011;34586;53.616;10.032;2022-07-29T02:25:55;3.83;;;1.33;;
10872;SDS011;34586;53.616;10.032;2022-07-29T02:28:22;2.70;;;1.50;;
10872;SDS011;34586;53.616;10.032;2022-07-29T02:30:53;2.13;;;1.20;;
10872;SDS011;34586;53.616;10.032;2022-07-29T02:33:24;2.37;;;1.53;;
10872;SDS011;34586;53.616;10.032;2022-07-29T02:35:52;3.57;;;1.40;;
10872;SDS011;34586;53.616;10.032;2022-07-29T02:38:20;2.00;;;1.17;;
10872;SDS011;34586;53.616;10.032;2022-07-29T02:41:09;5.60;;;1.53;;
10872;SDS011;34586;53.616;10.032;2022-07-29T02:43:36;5.17;;;1.80;;
10872;SDS011;34586;53.616;10.032;2022-07-29T02:46:04;3.00;;;1.47;;
10872;SDS011;34586;53.616;10.032;2022-07-29T02:48:41;3.80;;;1.30;;
10872;SDS011;34586;53.616;10.032;2022-07-29T02:51:43;3.13;;;1.40;;
10872;SDS011;34586;53.616;10.032;2022-07-29T02:54:10;3.23;;;1.60;;
10872;SDS011;34586;53.616;10.032;2022-07-29T02:56:43;3.80;;;1.57;;
10872;SDS011;34586;53.616;10.032;2022-07-29T02:59:11;3.73;;;1.60;;
10872;SDS011;34586;53.616;10.032;2022-07-29T03:01:39;2.57;;;1.27;;
10872;SDS011;34586;53.616;10.032;2022-07-29T03:04:07;3.20;;;1.60;;
10872;SDS011;34586;53.616;10.032;2022-07-29T03:06:36;2.83;;;1.50;;
10872;SDS011;34586;53.616;10.032;2022-07-29T03:09:03;2.20;;;1.40;;
10872;SDS011;34586;53.616;10.032;2022-07-29T03:11:31;2.83;;;1.40;;
10872;SDS011;34586;53.616;10.032;2022-07-29T03:13:57;2.20;;;1.33;;
10872;SDS011;34586;53.616;10.032;2022-07-29T03:16:23;3.27;;;1.60;;
10872;SDS011;34586;53.616;10.032;2022-07-29T03:18:50;2.47;;;1.57;;
10872;SDS011;34586;53.616;10.032;2022-07-29T03:21:16;1.93;;;1.30;;
10872;SDS011;34586;53.616;10.032;2022-07-29T03:23:44;3.93;;;1.60;;
10872;SDS011;34586;53.616;10.032;2022-07-29T03:26:10;2.50;;;1.63;;
10872;SDS011;34586;53.616;10.032;2022-07-29T03:28:37;6.23;;;1.70;;
10872;SDS011;34586;53.616;10.032;2022-07-29T03:31:02;3.27;;;1.47;;
10872;SDS011;34586;53.616;10.032;2022-07-29T03:33:28;2.30;;;1.80;;
10872;SDS011;34586;53.616;10.032;2022-07-29T03:35:55;4.20;;;2.17;;
10872;SDS011;34586;53.616;10.032;2022-07-29T03:38:21;2.93;;;1.57;;
10872;SDS011;34586;53.616;10.032;2022-07-29T03:40:54;3.17;;;1.60;;
10872;SDS011;34586;53.616;10.032;2022-07-29T03:43:24;2.87;;;1.83;;
10872;SDS011;34586;53.616;10.032;2022-07-29T03:45:52;2.73;;;2.13;;
10872;SDS011;34586;53.616;10.032;2022-07-29T03:48:20;3.90;;;1.63;;
10872;SDS011;34586;53.616;10.032;2022-07-29T03:50:49;3.20;;;1.90;;
10872;SDS011;34586;53.616;10.032;2022-07-29T03:53:16;2.93;;;1.83;;
10872;SDS011;34586;53.616;10.032;2022-07-29T03:55:47;3.13;;;1.67;;
10872;SDS011;34586;53.616;10.032;2022-07-29T03:58:17;4.43;;;2.00;;
10872;SDS011;34586;53.616;10.032;2022-07-29T04:00:44;5.20;;;1.63;;
10872;SDS011;34586;53.616;10.032;2022-07-29T04:03:10;5.33;;;1.83;;
10872;SDS011;34586;53.616;10.032;2022-07-29T04:05:37;3.77;;;1.67;;
10872;SDS011;34586;53.616;10.032;2022-07-29T04:08:02;4.93;;;1.70;;
10872;SDS011;34586;53.616;10.032;2022-07-29T04:10:28;3.97;;;1.63;;
10872;SDS011;34586;53.616;10.032;2022-07-29T04:12:54;4.47;;;1.70;;
10872;SDS011;34586;53.616;10.032;2022-07-29T04:15:19;3.63;;;1.60;;
10872;SDS011;34586;53.616;10.032;2022-07-29T04:17:45;4.13;;;1.87;;
10872;SDS011;34586;53.616;10.032;2022-07-29T04:20:10;2.13;;;1.70;;
10872;SDS011;34586;53.616;10.032;2022-07-29T04:22:39;3.83;;;1.87;;
10872;SDS011;34586;53.616;10.032;2022-07-29T04:25:05;2.63;;;1.53;;
10872;SDS011;34586;53.616;10.032;2022-07-29T04:27:31;2.27;;;1.90;;
10872;SDS011;34586;53.616;10.032;2022-07-29T04:29:57;5.33;;;1.87;;
10872;SDS011;34586;53.616;10.032;2022-07-29T04:32:23;2.27;;;1.83;;
10872;SDS011;34586;53.616;10.032;2022-07-29T04:34:49;3.87;;;1.80;;
10872;SDS011;34586;53.616;10.032;2022-07-29T04:37:15;4.57;;;2.10;;
10872;SDS011;34586;53.616;10.032;2022-07-29T04:39:42;6.47;;;2.40;;
10872;SDS011;34586;53.616;10.032;2022-07-29T04:42:08;3.07;;;1.97;;
10872;SDS011;34586;53.616;10.032;2022-07-29T04:44:33;2.20;;;1.70;;
10872;SDS011;34586;53.616;10.032;2022-07-29T04:46:59;2.67;;;1.87;;
10872;SDS011;34586;53.616;10.032;2022-07-29T04:49:25;2.43;;;1.53;;
10872;SDS011;34586;53.616;10.032;2022-07-29T04:51:50;3.57;;;1.97;;
10872;SDS011;34586;53.616;10.032;2022-07-29T04:54:16;2.67;;;1.80;;
10872;SDS011;34586;53.616;10.032;2022-07-29T04:56:42;3.20;;;1.80;;
10872;SDS011;34586;53.616;10.032;2022-07-29T04:59:07;2.80;;;2.00;;
10872;SDS011;34586;53.616;10.032;2022-07-29T05:01:33;2.80;;;1.70;;
10872;SDS011;34586;53.616;10.032;2022-07-29T05:03:59;3.43;;;1.63;;
10872;SDS011;34586;53.616;10.032;2022-07-29T05:06:25;3.00;;;2.00;;
10872;SDS011;34586;53.616;10.032;2022-07-29T05:08:50;3.43;;;1.70;;
10872;SDS011;34586;53.616;10.032;2022-07-29T05:11:16;4.47;;;2.10;;
10872;SDS011;34586;53.616;10.032;2022-07-29T05:13:41;2.47;;;1.63;;
10872;SDS011;34586;53.616;10.032;2022-07-29T05:16:07;4.20;;;2.00;;
10872;SDS011;34586;53.616;10.032;2022-07-29T05:18:34;5.23;;;2.27;;
10872;SDS011;34586;53.616;10.032;2022-07-29T05:20:59;3.63;;;1.80;;
10872;SDS011;34586;53.616;10.032;2022-07-29T05:23:25;4.30;;;1.77;;
10872;SDS011;34586;53.616;10.032;2022-07-29T05:25:51;3.70;;;1.80;;
10872;SDS011;34586;53.616;10.032;2022-07-29T05:28:17;2.60;;;1.70;;
10872;SDS011;34586;53.616;10.032;2022-07-29T05:30:42;4.23;;;1.77;;
10872;SDS011;34586;53.616;10.032;2022-07-29T05:33:09;3.23;;;1.90;;
10872;SDS011;34586;53.616;10.032;2022-07-29T05:35:35;3.60;;;1.80;;
10872;SDS011;34586;53.616;10.032;2022-07-29T05:38:02;4.03;;;1.83;;
10872;SDS011;34586;53.616;10.032;2022-07-29T05:40:28;4.47;;;1.73;;
10872;SDS011;34586;53.616;10.032;2022-07-29T05:42:53;3.60;;;1.80;;
10872;SDS011;34586;53.616;10.032;2022-07-29T05:45:20;4.27;;;1.90;;
10872;SDS011;34586;53.616;10.032;2022-07-29T05:47:45;5.20;;;1.93;;
10872;SDS011;34586;53.616;10.032;2022-07-29T05:50:11;3.23;;;1.83;;
10872;SDS011;34586;53.616;10.032;2022-07-29T05:52:38;1.70;;;1.60;;
10872;SDS011;34586;53.616;10.032;2022-07-29T05:55:04;2.07;;;1.60;;
10872;SDS011;34586;53.616;10.032;2022-07-29T05:57:30;4.17;;;1.80;;
10872;SDS011;34586;53.616;10.032;2022-07-29T05:59:56;4.73;;;1.73;;
10872;SDS011;34586;53.616;10.032;2022-07-29T06:02:23;4.60;;;1.60;;
10872;SDS011;34586;53.616;10.032;2022-07-29T06:04:49;3.70;;;1.60;;
10872;SDS011;34586;53.616;10.032;2022-07-29T06:07:15;2.60;;;1.70;;
10872;SDS011;34586;53.616;10.032;2022-07-29T06:09:41;2.57;;;1.57;;
10872;SDS011;34586;53.616;10.032;2022-07-29T06:12:07;2.17;;;1.40;;
10872;SDS011;34586;53.616;10.032;2022-07-29T06:14:34;2.87;;;1.43;;
10872;SDS011;34586;53.616;10.032;2022-07-29T06:17:00;3.10;;;1.80;;
10872;SDS011;34586;53.616;10.032;2022-07-29T06:19:26;3.67;;;1.30;;
10872;SDS011;34586;53.616;10.032;2022-07-29T06:21:51;3.70;;;1.57;;
10872;SDS011;34586;53.616;10.032;2022-07-29T06:24:18;4.27;;;1.57;;
10872;SDS011;34586;53.616;10.032;2022-07-29T06:26:44;2.63;;;1.70;;
10872;SDS011;34586;53.616;10.032;2022-07-29T06:29:10;2.07;;;1.37;;
10872;SDS011;34586;53.616;10.032;2022-07-29T06:31:36;5.63;;;1.57;;
10872;SDS011;34586;53.616;10.032;2022-07-29T06:34:02;3.67;;;1.70;;
10872;SDS011;34586;53.616;10.032;2022-07-29T06:36:28;3.27;;;1.40;;
10872;SDS011;34586;53.616;10.032;2022-07-29T06:38:54;3.10;;;1.60;;
10872;SDS011;34586;53.616;10.032;2022-07-29T06:41:21;2.97;;;1.40;;
10872;SDS011;34586;53.616;10.032;2022-07-29T06:43:47;4.10;;;1.53;;
10872;SDS011;34586;53.616;10.032;2022-07-29T06:46:14;3.00;;;1.50;;
10872;SDS011;34586;53.616;10.032;2022-07-29T06:48:42;3.60;;;1.67;;
10872;SDS011;34586;53.616;10.032;2022-07-29T06:51:08;8.00;;;1.90;;
10872;SDS011;34586;53.616;10.032;2022-07-29T06:53:35;3.07;;;1.37;;
10872;SDS011;34586;53.616;10.032;2022-07-29T06:56:01;2.40;;;1.50;;
10872;SDS011;34586;53.616;10.032;2022-07-29T06:58:28;2.53;;;1.30;;
10872;SDS011;34586;53.616;10.032;2022-07-29T07:00:55;2.90;;;1.67;;
10872;SDS011;34586;53.616;10.032;2022-07-29T07:03:21;5.40;;;1.97;;
10872;SDS011;34586;53.616;10.032;2022-07-29T07:05:47;2.37;;;1.30;;
10872;SDS011;34586;53.616;10.032;2022-07-29T07:08:13;2.73;;;1.43;;
10872;SDS011;34586;53.616;10.032;2022-07-29T07:10:40;3.50;;;1.40;;
10872;SDS011;34586;53.616;10.032;2022-07-29T07:13:06;3.13;;;1.23;;
10872;SDS011;34586;53.616;10.032;2022-07-29T07:15:32;4.47;;;1.57;;
10872;SDS011;34586;53.616;10.032;2022-07-29T07:17:59;5.17;;;1.40;;
10872;SDS011;34586;53.616;10.032;2022-07-29T07:20:25;3.57;;;1.23;;
10872;SDS011;34586;53.616;10.032;2022-07-29T07:22:51;6.00;;;1.63;;
10872;SDS011;34586;53.616;10.032;2022-07-29T07:25:16;3.00;;;1.43;;
10872;SDS011;34586;53.616;10.032;2022-07-29T07:27:42;1.83;;;1.40;;
10872;SDS011;34586;53.616;10.032;2022-07-29T07:30:09;3.03;;;1.30;;
10872;SDS011;34586;53.616;10.032;2022-07-29T07:32:35;2.60;;;1.33;;
10872;SDS011;34586;53.616;10.032;2022-07-29T07:35:02;3.13;;;1.70;;
10872;SDS011;34586;53.616;10.032;2022-07-29T07:37:28;3.97;;;1.63;;
10872;SDS011;34586;53.616;10.032;2022-07-29T07:39:54;3.80;;;1.40;;
10872;SDS011;34586;53.616;10.032;2022-07-29T07:42:21;3.80;;;1.40;;
10872;SDS011;34586;53.616;10.032;2022-07-29T07:44:47;2.07;;;1.33;;
10872;SDS011;34586;53.616;10.032;2022-07-29T07:47:13;3.50;;;1.47;;
10872;SDS011;34586;53.616;10.032;2022-07-29T07:49:45;3.70;;;1.30;;
10872;SDS011;34586;53.616;10.032;2022-07-29T07:52:11;4.70;;;1.60;;
10872;SDS011;34586;53.616;10.032;2022-07-29T07:54:38;4.70;;;1.57;;
10872;SDS011;34586;53.616;10.032;2022-07-29T07:57:03;7.60;;;1.83;;
10872;SDS011;34586;53.616;10.032;2022-07-29T07:59:29;3.63;;;1.67;;
10872;SDS011;34586;53.616;10.032;2022-07-29T08:01:54;2.27;;;1.37;;
10872;SDS011;34586;53.616;10.032;2022-07-29T08:04:20;1.83;;;1.20;;
10872;SDS011;34586;53.616;10.032;2022-07-29T08:06:45;4.00;;;1.63;;
10872;SDS011;34586;53.616;10.032;2022-07-29T08:09:11;2.10;;;1.33;;
10872;SDS011;34586;53.616;10.032;2022-07-29T08:11:37;3.13;;;1.37;;
10872;SDS011;34586;53.616;10.032;2022-07-29T08:14:03;2.07;;;1.07;;
10872;SDS011;34586;53.616;10.032;2022-07-29T08:16:28;3.57;;;1.70;;
10872;SDS011;34586;53.616;10.032;2022-07-29T08:18:54;2.87;;;1.57;;
10872;SDS011;34586;53.616;10.032;2022-07-29T08:21:22;2.67;;;1.33;;
10872;SDS011;34586;53.616;10.032;2022-07-29T08:23:48;3.30;;;1.47;;
10872;SDS011;34586;53.616;10.032;2022-07-29T08:26:17;1.90;;;1.07;;
10872;SDS011;34586;53.616;10.032;2022-07-29T08:28:45;2.70;;;1.47;;
10872;SDS011;34586;53.616;10.032;2022-07-29T08:31:14;2.03;;;1.40;;
10872;SDS011;34586;53.616;10.032;2022-07-29T08:33:40;4.03;;;1.53;;
10872;SDS011;34586;53.616;10.032;2022-07-29T08:36:06;1.37;;;1.20;;
10872;SDS011;34586;53.616;10.032;2022-07-29T08:38:33;2.93;;;1.50;;
10872;SDS011;34586;53.616;10.032;2022-07-29T08:41:02;3.20;;;1.27;;
10872;SDS011;34586;53.616;10.032;2022-07-29T08:43:28;2.83;;;1.30;;
10872;SDS011;34586;53.616;10.032;2022-07-29T08:45:54;1.83;;;1.10;;
10872;SDS011;34586;53.616;10.032;2022-07-29T08:48:20;3.00;;;1.13;;
10872;SDS011;34586;53.616;10.032;2022-07-29T08:50:48;2.07;;;1.23;;
10872;SDS011;34586;53.616;10.032;2022-07-29T08:53:21;3.73;;;1.50;;
10872;SDS011;34586;53.616;10.032;2022-07-29T08:55:51;2.80;;;1.13;;
10872;SDS011;34586;53.616;10.032;2022-07-29T08:58:18;4.90;;;1.30;;
10872;SDS011;34586;53.616;10.032;2022-07-29T09:00:46;3.67;;;1.60;;
10872;SDS011;34586;53.616;10.032;2022-07-29T09:03:20;2.97;;;1.20;;
10872;SDS011;34586;53.616;10.032;2022-07-29T09:05:49;2.93;;;1.20;;
10872;SDS011;34586;53.616;10.032;2022-07-29T09:08:16;1.97;;;1.30;;
10872;SDS011;34586;53.616;10.032;2022-07-29T09:10:42;2.23;;;1.23;;
10872;SDS011;34586;53.616;10.032;2022-07-29T09:13:08;3.17;;;1.30;;
10872;SDS011;34586;53.616;10.032;2022-07-29T09:15:34;2.00;;;1.33;;
10872;SDS011;34586;53.616;10.032;2022-07-29T09:18:00;2.37;;;1.20;;
10872;SDS011;34586;53.616;10.032;2022-07-29T09:20:27;3.37;;;1.43;;
10872;SDS011;34586;53.616;10.032;2022-07-29T09:23:12;1.60;;;1.20;;
10872;SDS011;34586;53.616;10.032;2022-07-29T09:25:39;3.47;;;1.50;;
10872;SDS011;34586;53.616;10.032;2022-07-29T09:28:06;2.97;;;1.10;;
10872;SDS011;34586;53.616;10.032;2022-07-29T09:30:35;2.40;;;1.00;;
10872;SDS011;34586;53.616;10.032;2022-07-29T09:33:17;1.97;;;1.20;;
10872;SDS011;34586;53.616;10.032;2022-07-29T09:35:42;4.97;;;1.03;;
10872;SDS011;34586;53.616;10.032;2022-07-29T09:38:12;2.33;;;1.20;;
10872;SDS011;34586;53.616;10.032;2022-07-29T09:40:38;3.17;;;1.20;;
10872;SDS011;34586;53.616;10.032;2022-07-29T09:43:12;2.90;;;1.30;;
10872;SDS011;34586;53.616;10.032;2022-07-29T09:45:38;2.33;;;1.20;;
10872;SDS011;34586;53.616;10.032;2022-07-29T09:48:14;1.67;;;0.93;;
10872;SDS011;34586;53.616;10.032;2022-07-29T09:50:42;4.87;;;1.20;;
10872;SDS011;34586;53.616;10.032;2022-07-29T09:53:09;4.93;;;1.50;;
10872;SDS011;34586;53.616;10.032;2022-07-29T09:55:45;3.20;;;1.20;;
10872;SDS011;34586;53.616;10.032;2022-07-29T09:58:16;2.90;;;1.20;;
10872;SDS011;34586;53.616;10.032;2022-07-29T10:00:43;3.47;;;1.20;;
10872;SDS011;34586;53.616;10.032;2022-07-29T10:03:10;2.17;;;1.00;;
10872;SDS011;34586;53.616;10.032;2022-07-29T10:05:37;3.43;;;1.40;;
10872;SDS011;34586;53.616;10.032;2022-07-29T10:08:03;3.10;;;0.80;;
10872;SDS011;34586;53.616;10.032;2022-07-29T10:10:30;1.50;;;0.80;;
10872;SDS011;34586;53.616;10.032;2022-07-29T10:13:05;3.23;;;1.00;;
10872;SDS011;34586;53.616;10.032;2022-07-29T10:15:37;3.67;;;1.17;;
10872;SDS011;34586;53.616;10.032;2022-07-29T10:18:06;4.60;;;1.27;;
10872;SDS011;34586;53.616;10.032;2022-07-29T10:20:33;2.40;;;1.10;;
10872;SDS011;34586;53.616;10.032;2022-07-29T10:22:59;1.63;;;1.00;;
10872;SDS011;34586;53.616;10.032;2022-07-29T10:25:25;1.43;;;0.83;;
10872;SDS011;34586;53.616;10.032;2022-07-29T10:27:51;4.23;;;1.30;;
10872;SDS011;34586;53.616;10.032;2022-07-29T10:30:17;1.50;;;0.70;;
10872;SDS011;34586;53.616;10.032;2022-07-29T10:35:44;3.17;;;1.00;;
10872;SDS011;34586;53.616;10.032;2022-07-29T10:44:01;2.87;;;0.93;;
10872;SDS011;34586;53.616;10.032;2022-07-29T10:46:34;2.27;;;0.90;;
10872;SDS011;34586;53.616;10.032;2022-07-29T10:49:05;5.17;;;1.00;;
10872;SDS011;34586;53.616;10.032;2022-07-29T10:54:17;2.37;;;0.70;;
10872;SDS011;34586;53.616;10.032;2022-07-29T11:05:10;1.50;;;0.70;;
10872;SDS011;34586;53.616;10.032;2022-07-29T11:10:37;1.70;;;0.90;;
10872;SDS011;34586;53.616;10.032;2022-07-29T11:13:03;3.33;;;0.97;;
10872;SDS011;34586;53.616;10.032;2022-07-29T11:15:29;4.83;;;1.17;;
10872;SDS011;34586;53.616;10.032;2022-07-29T11:18:19;1.30;;;0.80;;
10872;SDS011;34586;53.616;10.032;2022-07-29T11:20:45;0.90;;;0.87;;
10872;SDS011;34586;53.616;10.032;2022-07-29T11:23:23;3.33;;;0.90;;
10872;SDS011;34586;53.616;10.032;2022-07-29T11:34:29;4.33;;;1.00;;
10872;SDS011;34586;53.616;10.032;2022-07-29T11:39:35;5.43;;;0.90;;
10872;SDS011;34586;53.616;10.032;2022-07-29T11:45:02;2.17;;;0.97;;
10872;SDS011;34586;53.616;10.032;2022-07-29T11:50:12;1.17;;;0.80;;
10872;SDS011;34586;53.616;10.032;2022-07-29T11:52:39;3.80;;;0.80;;
10872;SDS011;34586;53.616;10.032;2022-07-29T11:55:12;2.30;;;0.70;;
10872;SDS011;34586;53.616;10.032;2022-07-29T11:57:46;2.40;;;0.83;;
10872;SDS011;34586;53.616;10.032;2022-07-29T12:00:16;4.60;;;2.60;;
10872;SDS011;34586;53.616;10.032;2022-07-29T12:03:08;1.77;;;0.80;;
10872;SDS011;34586;53.616;10.032;2022-07-29T12:08:07;3.47;;;0.77;;
10872;SDS011;34586;53.616;10.032;2022-07-29T12:10:33;2.20;;;1.07;;
10872;SDS011;34586;53.616;10.032;2022-07-29T12:12:59;5.90;;;1.10;;
10872;SDS011;34586;53.616;10.032;2022-07-29T12:15:25;1.40;;;0.80;;
10872;SDS011;34586;53.616;10.032;2022-07-29T12:17:51;1.70;;;0.80;;
10872;SDS011;34586;53.616;10.032;2022-07-29T12:20:27;2.33;;;0.97;;
10872;SDS011;34586;53.616;10.032;2022-07-29T12:22:54;3.47;;;1.13;;
10872;SDS011;34586;53.616;10.032;2022-07-29T12:25:21;3.87;;;0.87;;
10872;SDS011;34586;53.616;10.032;2022-07-29T12:27:57;5.30;;;1.00;;
10872;SDS011;34586;53.616;10.032;2022-07-29T12:30:38;4.03;;;0.97;;
10872;SDS011;34586;53.616;10.032;2022-07-29T12:33:13;2.23;;;0.80;;
10872;SDS011;34586;53.616;10.032;2022-07-29T12:36:02;2.47;;;0.70;;
10872;SDS011;34586;53.616;10.032;2022-07-29T12:38:28;3.17;;;1.00;;
10872;SDS011;34586;53.616;10.032;2022-07-29T12:40:54;2.13;;;0.87;;
10872;SDS011;34586;53.616;10.032;2022-07-29T12:43:21;4.40;;;0.70;;
10872;SDS011;34586;53.616;10.032;2022-07-29T12:45:50;3.77;;;1.07;;
10872;SDS011;34586;53.616;10.032;2022-07-29T12:48:34;5.23;;;1.07;;
10872;SDS011;34586;53.616;10.032;2022-07-29T12:51:07;2.92;;;0.95;;
10872;SDS011;34586;53.616;10.032;2022-07-29T12:53:36;3.78;;;0.88;;
10872;SDS011;34586;53.616;10.032;2022-07-29T12:56:02;2.53;;;0.90;;
10872;SDS011;34586;53.616;10.032;2022-07-29T12:58:32;1.88;;;1.00;;
10872;SDS011;34586;53.616;10.032;2022-07-29T13:03:55;3.78;;;1.15;;
10872;SDS011;34586;53.616;10.032;2022-07-29T13:09:11;5.03;;;1.23;;
10872;SDS011;34586;53.616;10.032;2022-07-29T13:11:45;3.33;;;1.10;;
10872;SDS011;34586;53.616;10.032;2022-07-29T13:14:32;3.53;;;1.13;;
10872;SDS011;34586;53.616;10.032;2022-07-29T13:17:07;5.13;;;1.20;;
10872;SDS011;34586;53.616;10.032;2022-07-29T13:22:11;3.87;;;1.20;;
10872;SDS011;34586;53.616;10.032;2022-07-29T13:24:48;2.00;;;1.40;;
10872;SDS011;34586;53.616;10.032;2022-07-29T13:27:16;3.40;;;1.07;;
10872;SDS011;34586;53.616;10.032;2022-07-29T13:29:44;2.23;;;0.90;;
10872;SDS011;34586;53.616;10.032;2022-07-29T13:32:10;4.40;;;1.20;;
10872;SDS011;34586;53.616;10.032;2022-07-29T13:34:37;4.93;;;1.23;;
10872;SDS011;34586;53.616;10.032;2022-07-29T13:37:04;3.53;;;1.30;;
10872;SDS011;34586;53.616;10.032;2022-07-29T13:39:29;3.65;;;1.30;;
10872;SDS011;34586;53.616;10.032;2022-07-29T13:41:55;3.45;;;1.20;;
10872;SDS011;34586;53.616;10.032;2022-07-29T13:44:21;3.50;;;1.10;;
10872;SDS011;34586;53.616;10.032;2022-07-29T13:46:46;2.90;;;1.40;;
10872;SDS011;34586;53.616;10.032;2022-07-29T13:49:12;3.63;;;1.00;;
10872;SDS011;34586;53.616;10.032;2022-07-29T13:51:38;5.33;;;1.20;;
10872;SDS011;34586;53.616;10.032;2022-07-29T13:54:04;4.47;;;1.30;;
10872;SDS011;34586;53.616;10.032;2022-07-29T13:56:30;4.10;;;1.20;;
10872;SDS011;34586;53.616;10.032;2022-07-29T13:58:57;4.67;;;1.30;;
10872;SDS011;34586;53.616;10.032;2022-07-29T14:01:23;3.23;;;1.30;;
10872;SDS011;34586;53.616;10.032;2022-07-29T14:03:49;4.33;;;1.20;;
10872;SDS011;34586;53.616;10.032;2022-07-29T14:06:15;4.83;;;1.10;;
10872;SDS011;34586;53.616;10.032;2022-07-29T14:08:40;2.87;;;1.03;;
10872;SDS011;34586;53.616;10.032;2022-07-29T14:11:06;2.47;;;1.30;;
10872;SDS011;34586;53.616;10.032;2022-07-29T14:13:32;2.80;;;1.10;;
10872;SDS011;34586;53.616;10.032;2022-07-29T14:15:57;3.03;;;1.10;;
10872;SDS011;34586;53.616;10.032;2022-07-29T14:18:23;4.67;;;1.17;;
10872;SDS011;34586;53.616;10.032;2022-07-29T14:20:50;3.53;;;1.23;;
10872;SDS011;34586;53.616;10.032;2022-07-29T14:23:16;4.17;;;1.20;;
10872;SDS011;34586;53.616;10.032;2022-07-29T14:25:42;4.87;;;1.20;;
10872;SDS011;34586;53.616;10.032;2022-07-29T14:28:08;5.17;;;1.33;;
10872;SDS011;34586;53.616;10.032;2022-07-29T14:30:34;2.73;;;1.30;;
10872;SDS011;34586;53.616;10.032;2022-07-29T14:32:59;2.53;;;1.20;;
10872;SDS011;34586;53.616;10.032;2022-07-29T14:35:25;3.53;;;1.20;;
10872;SDS011;34586;53.616;10.032;2022-07-29T14:37:51;1.67;;;0.97;;
10872;SDS011;34586;53.616;10.032;2022-07-29T14:40:16;2.60;;;1.10;;
10872;SDS011;34586;53.616;10.032;2022-07-29T14:42:42;2.63;;;0.97;;
10872;SDS011;34586;53.616;10.032;2022-07-29T14:45:08;3.33;;;1.10;;
10872;SDS011;34586;53.616;10.032;2022-07-29T14:47:34;2.27;;;1.07;;
10872;SDS011;34586;53.616;10.032;2022-07-29T14:50:00;4.53;;;1.17;;
10872;SDS011;34586;53.616;10.032;2022-07-29T14:52:26;5.90;;;1.23;;
10872;SDS011;34586;53.616;10.032;2022-07-29T14:54:52;3.50;;;1.10;;
10872;SDS011;34586;53.616;10.032;2022-07-29T14:57:17;2.97;;;1.53;;
10872;SDS011;34586;53.616;10.032;2022-07-29T14:59:43;3.53;;;1.20;;
10872;SDS011;34586;53.616;10.032;2022-07-29T15:02:09;5.03;;;1.37;;
10872;SDS011;34586;53.616;10.032;2022-07-29T15:04:34;2.47;;;1.00;;
10872;SDS011;34586;53.616;10.032;2022-07-29T15:07:00;3.27;;;1.20;;
10872;SDS011;34586;53.616;10.032;2022-07-29T15:09:26;2.00;;;1.00;;
10872;SDS011;34586;53.616;10.032;2022-07-29T15:11:51;4.80;;;1.20;;
10872;SDS011;34586;53.616;10.032;2022-07-29T15:14:17;2.77;;;0.93;;
10872;SDS011;34586;53.616;10.032;2022-07-29T15:16:44;7.20;;;1.63;;
10872;SDS011;34586;53.616;10.032;2022-07-29T15:19:10;2.13;;;1.10;;
10872;SDS011;34586;53.616;10.032;2022-07-29T15:21:35;4.53;;;1.33;;
10872;SDS011;34586;53.616;10.032;2022-07-29T15:24:01;3.07;;;1.23;;
10872;SDS011;34586;53.616;10.032;2022-07-29T15:26:27;2.63;;;1.10;;
10872;SDS011;34586;53.616;10.032;2022-07-29T15:28:53;2.73;;;1.00;;
10872;SDS011;34586;53.616;10.032;2022-07-29T15:31:20;4.50;;;1.33;;
10872;SDS011;34586;53.616;10.032;2022-07-29T15:33:46;2.60;;;1.10;;
10872;SDS011;34586;53.616;10.032;2022-07-29T15:36:11;4.47;;;2.03;;
10872;SDS011;34586;53.616;10.032;2022-07-29T15:38:37;2.60;;;1.37;;
10872;SDS011;34586;53.616;10.032;2022-07-29T15:41:05;5.97;;;1.37;;